sensor_id;sensor_type;location;lat;lon;timestamp;P1;durP1;ratioP1;P2;durP2;ratioP2
4961;SDS011;2496;52.468;13.342;2022-08-14T00:00:09;15.77;;;9.90;;
4961;SDS011;2496;52.468;13.342;2022-08-14T00:02:43;11.40;;;9.97;;
4961;SDS011;2496;52.468;13.342;2022-08-14T00:05:13;11.13;;;10.03;;
4961;SDS011;2496;52.468;13.342;2022-08-14T00:07:44;14.13;;;10.47;;
4961;SDS011;2496;52.468;13.342;2022-08-14T00:10:14;16.63;;;10.23;;
4961;SDS011;2496;52.468;13.342;2022-08-14T00:12:46;12.70;;;10.53;;
4961;SDS011;2496;52.468;13.342;2022-08-14T00:15:19;12.20;;;10.70;;
4961;SDS011;2496;52.468;13.342;2022-08-14T00:17:54;13.20;;;8.87;;
4961;SDS011;2496;52.468;13.342;2022-08-14T00:20:24;12.83;;;10.27;;
4961;SDS011;2496;52.468;13.342;2022-08-14T00:22:53;17.33;;;11.53;;
4961;SDS011;2496;52.468;13.342;2022-08-14T00:25:21;13.00;;;9.53;;
4961;SDS011;2496;52.468;13.342;2022-08-14T00:27:50;12.80;;;10.10;;
4961;SDS011;2496;52.468;13.342;2022-08-14T00:30:20;10.67;;;9.30;;
4961;SDS011;2496;52.468;13.342;2022-08-14T00:32:49;10.03;;;9.03;;
4961;SDS011;2496;52.468;13.342;2022-08-14T00:35:20;12.63;;;8.77;;
4961;SDS011;2496;52.468;13.342;2022-08-14T00:37:49;12.03;;;9.77;;
4961;SDS011;2496;52.468;13.342;2022-08-14T00:40:19;13.00;;;8.83;;
4961;SDS011;2496;52.468;13.342;2022-08-14T00:42:46;9.17;;;8.37;;
4961;SDS011;2496;52.468;13.342;2022-08-14T00:45:17;10.13;;;9.17;;
4961;SDS011;2496;52.468;13.342;2022-08-14T00:47:46;10.97;;;8.97;;
4961;SDS011;2496;52.468;13.342;2022-08-14T00:50:17;10.53;;;8.53;;
4961;SDS011;2496;52.468;13.342;2022-08-14T00:52:47;9.70;;;8.73;;
4961;SDS011;2496;52.468;13.342;2022-08-14T00:55:17;12.90;;;8.77;;
4961;SDS011;2496;52.468;13.342;2022-08-14T00:57:46;10.87;;;8.67;;
4961;SDS011;2496;52.468;13.342;2022-08-14T01:00:35;9.10;;;8.10;;
4961;SDS011;2496;52.468;13.342;2022-08-14T01:03:05;8.87;;;7.97;;
4961;SDS011;2496;52.468;13.342;2022-08-14T01:05:37;9.93;;;7.90;;
4961;SDS011;2496;52.468;13.342;2022-08-14T01:08:11;17.23;;;8.00;;
4961;SDS011;2496;52.468;13.342;2022-08-14T01:10:38;15.77;;;8.90;;
4961;SDS011;2496;52.468;13.342;2022-08-14T01:13:26;10.87;;;8.20;;
4961;SDS011;2496;52.468;13.342;2022-08-14T01:15:56;10.63;;;8.57;;
4961;SDS011;2496;52.468;13.342;2022-08-14T01:18:25;9.57;;;8.50;;
4961;SDS011;2496;52.468;13.342;2022-08-14T01:21:12;11.07;;;9.07;;
4961;SDS011;2496;52.468;13.342;2022-08-14T01:23:43;9.03;;;8.13;;
4961;SDS011;2496;52.468;13.342;2022-08-14T01:26:11;8.50;;;7.70;;
4961;SDS011;2496;52.468;13.342;2022-08-14T01:28:40;9.67;;;8.80;;
4961;SDS011;2496;52.468;13.342;2022-08-14T01:31:08;9.77;;;8.73;;
4961;SDS011;2496;52.468;13.342;2022-08-14T01:33:39;9.53;;;8.27;;
4961;SDS011;2496;52.468;13.342;2022-08-14T01:36:08;8.90;;;8.00;;
4961;SDS011;2496;52.468;13.342;2022-08-14T01:38:38;11.23;;;9.03;;
4961;SDS011;2496;52.468;13.342;2022-08-14T01:41:09;9.53;;;8.50;;
4961;SDS011;2496;52.468;13.342;2022-08-14T01:43:42;10.97;;;9.23;;
4961;SDS011;2496;52.468;13.342;2022-08-14T01:46:12;11.10;;;8.87;;
4961;SDS011;2496;52.468;13.342;2022-08-14T01:48:41;11.13;;;9.60;;
4961;SDS011;2496;52.468;13.342;2022-08-14T01:51:10;12.83;;;9.53;;
4961;SDS011;2496;52.468;13.342;2022-08-14T01:53:38;10.50;;;9.17;;
4961;SDS011;2496;52.468;13.342;2022-08-14T01:56:08;13.30;;;9.07;;
4961;SDS011;2496;52.468;13.342;2022-08-14T01:58:36;12.00;;;9.60;;
4961;SDS011;2496;52.468;13.342;2022-08-14T02:01:03;12.80;;;9.47;;
4961;SDS011;2496;52.468;13.342;2022-08-14T02:03:31;9.53;;;8.50;;
4961;SDS011;2496;52.468;13.342;2022-08-14T02:06:05;16.10;;;10.10;;
4961;SDS011;2496;52.468;13.342;2022-08-14T02:08:33;10.33;;;9.33;;
4961;SDS011;2496;52.468;13.342;2022-08-14T02:11:02;10.03;;;8.80;;
4961;SDS011;2496;52.468;13.342;2022-08-14T02:13:45;10.13;;;9.13;;
4961;SDS011;2496;52.468;13.342;2022-08-14T02:16:15;10.23;;;9.17;;
4961;SDS011;2496;52.468;13.342;2022-08-14T02:18:43;14.70;;;9.50;;
4961;SDS011;2496;52.468;13.342;2022-08-14T02:21:10;11.33;;;8.70;;
4961;SDS011;2496;52.468;13.342;2022-08-14T02:23:42;13.13;;;9.77;;
4961;SDS011;2496;52.468;13.342;2022-08-14T02:26:14;11.07;;;9.33;;
4961;SDS011;2496;52.468;13.342;2022-08-14T02:28:44;9.93;;;8.90;;
4961;SDS011;2496;52.468;13.342;2022-08-14T02:31:13;17.23;;;10.10;;
4961;SDS011;2496;52.468;13.342;2022-08-14T02:33:40;9.87;;;8.80;;
4961;SDS011;2496;52.468;13.342;2022-08-14T02:36:08;11.93;;;9.80;;
4961;SDS011;2496;52.468;13.342;2022-08-14T02:38:36;10.57;;;9.47;;
4961;SDS011;2496;52.468;13.342;2022-08-14T02:41:07;12.17;;;10.10;;
4961;SDS011;2496;52.468;13.342;2022-08-14T02:43:34;13.20;;;10.10;;
4961;SDS011;2496;52.468;13.342;2022-08-14T02:46:04;10.83;;;9.40;;
4961;SDS011;2496;52.468;13.342;2022-08-14T02:48:34;10.57;;;9.03;;
4961;SDS011;2496;52.468;13.342;2022-08-14T02:51:03;12.50;;;9.13;;
4961;SDS011;2496;52.468;13.342;2022-08-14T02:53:32;10.87;;;9.40;;
4961;SDS011;2496;52.468;13.342;2022-08-14T02:55:59;11.50;;;8.40;;
4961;SDS011;2496;52.468;13.342;2022-08-14T02:58:28;11.30;;;10.10;;
4961;SDS011;2496;52.468;13.342;2022-08-14T03:00:55;10.97;;;9.90;;
4961;SDS011;2496;52.468;13.342;2022-08-14T03:03:24;11.63;;;9.63;;
4961;SDS011;2496;52.468;13.342;2022-08-14T03:05:51;11.27;;;9.73;;
4961;SDS011;2496;52.468;13.342;2022-08-14T03:08:19;13.50;;;9.17;;
4961;SDS011;2496;52.468;13.342;2022-08-14T03:10:46;14.83;;;9.27;;
4961;SDS011;2496;52.468;13.342;2022-08-14T03:13:13;17.53;;;11.03;;
4961;SDS011;2496;52.468;13.342;2022-08-14T03:15:40;14.20;;;10.17;;
4961;SDS011;2496;52.468;13.342;2022-08-14T03:18:11;17.30;;;9.90;;
4961;SDS011;2496;52.468;13.342;2022-08-14T03:20:40;10.00;;;9.00;;
4961;SDS011;2496;52.468;13.342;2022-08-14T03:23:07;12.87;;;9.90;;
4961;SDS011;2496;52.468;13.342;2022-08-14T03:25:34;12.10;;;9.83;;
4961;SDS011;2496;52.468;13.342;2022-08-14T03:28:02;12.27;;;10.10;;
4961;SDS011;2496;52.468;13.342;2022-08-14T03:30:31;14.17;;;10.00;;
4961;SDS011;2496;52.468;13.342;2022-08-14T03:32:58;16.00;;;9.90;;
4961;SDS011;2496;52.468;13.342;2022-08-14T03:35:25;14.17;;;11.73;;
4961;SDS011;2496;52.468;13.342;2022-08-14T03:37:55;14.73;;;10.40;;
4961;SDS011;2496;52.468;13.342;2022-08-14T03:40:29;11.37;;;10.27;;
4961;SDS011;2496;52.468;13.342;2022-08-14T03:42:56;12.57;;;11.27;;
4961;SDS011;2496;52.468;13.342;2022-08-14T03:45:23;16.17;;;11.00;;
4961;SDS011;2496;52.468;13.342;2022-08-14T03:47:50;12.60;;;10.33;;
4961;SDS011;2496;52.468;13.342;2022-08-14T03:50:17;12.40;;;11.10;;
4961;SDS011;2496;52.468;13.342;2022-08-14T03:52:44;10.23;;;9.20;;
4961;SDS011;2496;52.468;13.342;2022-08-14T03:55:13;16.17;;;10.80;;
4961;SDS011;2496;52.468;13.342;2022-08-14T03:57:40;17.07;;;10.80;;
4961;SDS011;2496;52.468;13.342;2022-08-14T04:00:08;12.87;;;11.57;;
4961;SDS011;2496;52.468;13.342;2022-08-14T04:02:37;12.20;;;11.00;;
4961;SDS011;2496;52.468;13.342;2022-08-14T04:05:05;13.03;;;10.77;;
4961;SDS011;2496;52.468;13.342;2022-08-14T04:07:33;12.73;;;11.43;;
4961;SDS011;2496;52.468;13.342;2022-08-14T04:10:03;12.47;;;11.17;;
4961;SDS011;2496;52.468;13.342;2022-08-14T04:12:32;13.50;;;10.17;;
4961;SDS011;2496;52.468;13.342;2022-08-14T04:15:00;14.20;;;10.50;;
4961;SDS011;2496;52.468;13.342;2022-08-14T04:17:27;11.80;;;10.60;;
4961;SDS011;2496;52.468;13.342;2022-08-14T04:19:54;14.13;;;10.57;;
4961;SDS011;2496;52.468;13.342;2022-08-14T04:22:21;9.93;;;9.07;;
4961;SDS011;2496;52.468;13.342;2022-08-14T04:24:49;13.87;;;10.40;;
4961;SDS011;2496;52.468;13.342;2022-08-14T04:27:17;11.13;;;10.00;;
4961;SDS011;2496;52.468;13.342;2022-08-14T04:29:45;12.77;;;10.57;;
4961;SDS011;2496;52.468;13.342;2022-08-14T04:32:13;15.30;;;10.90;;
4961;SDS011;2496;52.468;13.342;2022-08-14T04:34:40;11.67;;;10.10;;
4961;SDS011;2496;52.468;13.342;2022-08-14T04:37:07;11.70;;;10.50;;
4961;SDS011;2496;52.468;13.342;2022-08-14T04:39:51;12.57;;;9.70;;
4961;SDS011;2496;52.468;13.342;2022-08-14T04:42:37;13.10;;;10.03;;
4961;SDS011;2496;52.468;13.342;2022-08-14T04:45:24;11.77;;;9.60;;
4961;SDS011;2496;52.468;13.342;2022-08-14T04:47:56;10.87;;;9.80;;
4961;SDS011;2496;52.468;13.342;2022-08-14T04:50:39;13.30;;;9.77;;
4961;SDS011;2496;52.468;13.342;2022-08-14T04:53:09;11.13;;;10.03;;
4961;SDS011;2496;52.468;13.342;2022-08-14T04:55:38;13.00;;;10.20;;
4961;SDS011;2496;52.468;13.342;2022-08-14T04:58:06;13.30;;;11.07;;
4961;SDS011;2496;52.468;13.342;2022-08-14T05:00:35;13.87;;;10.23;;
4961;SDS011;2496;52.468;13.342;2022-08-14T05:03:04;12.50;;;10.67;;
4961;SDS011;2496;52.468;13.342;2022-08-14T05:05:31;14.60;;;10.07;;
4961;SDS011;2496;52.468;13.342;2022-08-14T05:08:03;11.70;;;10.37;;
4961;SDS011;2496;52.468;13.342;2022-08-14T05:10:33;12.50;;;9.90;;
4961;SDS011;2496;52.468;13.342;2022-08-14T05:13:01;12.70;;;10.97;;
4961;SDS011;2496;52.468;13.342;2022-08-14T05:15:29;14.70;;;10.73;;
4961;SDS011;2496;52.468;13.342;2022-08-14T05:18:01;12.37;;;10.30;;
4961;SDS011;2496;52.468;13.342;2022-08-14T05:20:30;16.67;;;10.87;;
4961;SDS011;2496;52.468;13.342;2022-08-14T05:22:57;14.87;;;10.33;;
4961;SDS011;2496;52.468;13.342;2022-08-14T05:25:24;12.80;;;11.13;;
4961;SDS011;2496;52.468;13.342;2022-08-14T05:27:51;14.63;;;10.27;;
4961;SDS011;2496;52.468;13.342;2022-08-14T05:30:18;12.10;;;10.50;;
4961;SDS011;2496;52.468;13.342;2022-08-14T05:32:45;17.10;;;9.93;;
4961;SDS011;2496;52.468;13.342;2022-08-14T05:35:14;11.23;;;10.13;;
4961;SDS011;2496;52.468;13.342;2022-08-14T05:37:40;12.63;;;11.17;;
4961;SDS011;2496;52.468;13.342;2022-08-14T05:40:08;18.10;;;9.83;;
4961;SDS011;2496;52.468;13.342;2022-08-14T05:42:35;11.50;;;10.03;;
4961;SDS011;2496;52.468;13.342;2022-08-14T05:45:03;17.00;;;10.30;;
4961;SDS011;2496;52.468;13.342;2022-08-14T05:47:32;12.30;;;11.10;;
4961;SDS011;2496;52.468;13.342;2022-08-14T05:50:04;12.50;;;10.47;;
4961;SDS011;2496;52.468;13.342;2022-08-14T05:52:33;12.53;;;9.00;;
4961;SDS011;2496;52.468;13.342;2022-08-14T05:55:00;12.60;;;10.40;;
4961;SDS011;2496;52.468;13.342;2022-08-14T05:57:28;11.30;;;10.20;;
4961;SDS011;2496;52.468;13.342;2022-08-14T05:59:55;10.47;;;9.40;;
4961;SDS011;2496;52.468;13.342;2022-08-14T06:02:22;10.80;;;9.23;;
4961;SDS011;2496;52.468;13.342;2022-08-14T06:04:48;15.13;;;9.03;;
4961;SDS011;2496;52.468;13.342;2022-08-14T06:07:15;12.67;;;9.27;;
4961;SDS011;2496;52.468;13.342;2022-08-14T06:09:43;12.87;;;9.47;;
4961;SDS011;2496;52.468;13.342;2022-08-14T06:12:10;12.90;;;9.20;;
4961;SDS011;2496;52.468;13.342;2022-08-14T06:14:37;10.73;;;9.43;;
4961;SDS011;2496;52.468;13.342;2022-08-14T06:17:07;18.83;;;9.07;;
4961;SDS011;2496;52.468;13.342;2022-08-14T06:19:33;24.10;;;10.20;;
4961;SDS011;2496;52.468;13.342;2022-08-14T06:22:00;10.70;;;9.13;;
4961;SDS011;2496;52.468;13.342;2022-08-14T06:24:27;10.07;;;8.90;;
4961;SDS011;2496;52.468;13.342;2022-08-14T06:26:56;11.53;;;9.53;;
4961;SDS011;2496;52.468;13.342;2022-08-14T06:29:23;10.50;;;9.40;;
4961;SDS011;2496;52.468;13.342;2022-08-14T06:31:50;12.93;;;9.30;;
4961;SDS011;2496;52.468;13.342;2022-08-14T06:34:17;11.67;;;10.07;;
4961;SDS011;2496;52.468;13.342;2022-08-14T06:36:44;10.03;;;9.07;;
4961;SDS011;2496;52.468;13.342;2022-08-14T06:39:10;11.50;;;10.30;;
4961;SDS011;2496;52.468;13.342;2022-08-14T06:41:37;13.13;;;9.73;;
4961;SDS011;2496;52.468;13.342;2022-08-14T06:44:07;10.63;;;9.63;;
4961;SDS011;2496;52.468;13.342;2022-08-14T06:46:34;11.93;;;10.73;;
4961;SDS011;2496;52.468;13.342;2022-08-14T06:49:01;11.60;;;10.00;;
4961;SDS011;2496;52.468;13.342;2022-08-14T06:51:28;13.57;;;10.17;;
4961;SDS011;2496;52.468;13.342;2022-08-14T06:53:55;13.30;;;10.40;;
4961;SDS011;2496;52.468;13.342;2022-08-14T06:56:22;11.10;;;9.90;;
4961;SDS011;2496;52.468;13.342;2022-08-14T06:58:49;10.47;;;9.47;;
4961;SDS011;2496;52.468;13.342;2022-08-14T07:01:17;13.27;;;10.40;;
4961;SDS011;2496;52.468;13.342;2022-08-14T07:04:02;11.60;;;10.30;;
4961;SDS011;2496;52.468;13.342;2022-08-14T07:06:47;15.77;;;10.50;;
4961;SDS011;2496;52.468;13.342;2022-08-14T07:09:14;13.23;;;11.47;;
4961;SDS011;2496;52.468;13.342;2022-08-14T07:11:41;14.30;;;10.90;;
4961;SDS011;2496;52.468;13.342;2022-08-14T07:14:08;12.10;;;10.40;;
4961;SDS011;2496;52.468;13.342;2022-08-14T07:16:37;12.90;;;10.63;;
4961;SDS011;2496;52.468;13.342;2022-08-14T07:19:03;11.03;;;9.93;;
4961;SDS011;2496;52.468;13.342;2022-08-14T07:21:32;14.33;;;11.07;;
4961;SDS011;2496;52.468;13.342;2022-08-14T07:24:01;15.30;;;10.70;;
4961;SDS011;2496;52.468;13.342;2022-08-14T07:26:28;11.53;;;10.30;;
4961;SDS011;2496;52.468;13.342;2022-08-14T07:28:55;16.17;;;9.10;;
4961;SDS011;2496;52.468;13.342;2022-08-14T07:31:22;15.17;;;9.53;;
4961;SDS011;2496;52.468;13.342;2022-08-14T07:33:50;10.77;;;9.07;;
4961;SDS011;2496;52.468;13.342;2022-08-14T07:36:17;11.70;;;10.37;;
4961;SDS011;2496;52.468;13.342;2022-08-14T07:38:45;17.53;;;10.20;;
4961;SDS011;2496;52.468;13.342;2022-08-14T07:41:12;17.77;;;10.13;;
4961;SDS011;2496;52.468;13.342;2022-08-14T07:43:39;15.70;;;10.30;;
4961;SDS011;2496;52.468;13.342;2022-08-14T07:46:07;13.57;;;10.03;;
4961;SDS011;2496;52.468;13.342;2022-08-14T07:48:36;11.73;;;9.27;;
4961;SDS011;2496;52.468;13.342;2022-08-14T07:51:06;17.43;;;10.97;;
4961;SDS011;2496;52.468;13.342;2022-08-14T07:53:33;12.23;;;9.73;;
4961;SDS011;2496;52.468;13.342;2022-08-14T07:56:00;11.10;;;10.03;;
4961;SDS011;2496;52.468;13.342;2022-08-14T07:58:27;14.90;;;10.90;;
4961;SDS011;2496;52.468;13.342;2022-08-14T08:00:57;11.00;;;9.63;;
4961;SDS011;2496;52.468;13.342;2022-08-14T08:03:24;11.70;;;9.67;;
4961;SDS011;2496;52.468;13.342;2022-08-14T08:05:52;12.13;;;9.40;;
4961;SDS011;2496;52.468;13.342;2022-08-14T08:08:20;12.20;;;10.90;;
4961;SDS011;2496;52.468;13.342;2022-08-14T08:10:48;16.87;;;9.13;;
4961;SDS011;2496;52.468;13.342;2022-08-14T08:13:15;11.87;;;9.93;;
4961;SDS011;2496;52.468;13.342;2022-08-14T08:15:44;15.33;;;9.10;;
4961;SDS011;2496;52.468;13.342;2022-08-14T08:18:13;10.97;;;9.93;;
4961;SDS011;2496;52.468;13.342;2022-08-14T08:20:42;10.90;;;9.63;;
4961;SDS011;2496;52.468;13.342;2022-08-14T08:23:11;12.70;;;9.00;;
4961;SDS011;2496;52.468;13.342;2022-08-14T08:25:40;9.77;;;8.83;;
4961;SDS011;2496;52.468;13.342;2022-08-14T08:28:08;11.37;;;8.83;;
4961;SDS011;2496;52.468;13.342;2022-08-14T08:30:40;10.53;;;9.20;;
4961;SDS011;2496;52.468;13.342;2022-08-14T08:33:12;9.60;;;8.70;;
4961;SDS011;2496;52.468;13.342;2022-08-14T08:35:40;9.30;;;8.30;;
4961;SDS011;2496;52.468;13.342;2022-08-14T08:38:09;10.40;;;8.30;;
4961;SDS011;2496;52.468;13.342;2022-08-14T08:40:38;11.37;;;8.80;;
4961;SDS011;2496;52.468;13.342;2022-08-14T08:43:07;11.07;;;9.43;;
4961;SDS011;2496;52.468;13.342;2022-08-14T08:45:35;9.73;;;8.50;;
4961;SDS011;2496;52.468;13.342;2022-08-14T08:48:02;9.73;;;8.73;;
4961;SDS011;2496;52.468;13.342;2022-08-14T08:50:31;12.90;;;7.90;;
4961;SDS011;2496;52.468;13.342;2022-08-14T08:52:59;15.90;;;8.53;;
4961;SDS011;2496;52.468;13.342;2022-08-14T08:55:31;8.23;;;7.53;;
4961;SDS011;2496;52.468;13.342;2022-08-14T08:58:02;11.20;;;8.80;;
4961;SDS011;2496;52.468;13.342;2022-08-14T09:00:31;12.90;;;8.77;;
4961;SDS011;2496;52.468;13.342;2022-08-14T09:03:02;10.63;;;8.13;;
4961;SDS011;2496;52.468;13.342;2022-08-14T09:05:31;8.73;;;7.90;;
4961;SDS011;2496;52.468;13.342;2022-08-14T09:08:10;8.73;;;7.83;;
4961;SDS011;2496;52.468;13.342;2022-08-14T09:10:38;12.43;;;8.33;;
4961;SDS011;2496;52.468;13.342;2022-08-14T09:13:07;10.83;;;7.53;;
4961;SDS011;2496;52.468;13.342;2022-08-14T09:15:37;8.97;;;7.93;;
4961;SDS011;2496;52.468;13.342;2022-08-14T09:18:05;9.47;;;8.47;;
4961;SDS011;2496;52.468;13.342;2022-08-14T09:20:33;12.93;;;8.73;;
4961;SDS011;2496;52.468;13.342;2022-08-14T09:23:00;8.33;;;7.20;;
4961;SDS011;2496;52.468;13.342;2022-08-14T09:25:29;10.00;;;7.40;;
4961;SDS011;2496;52.468;13.342;2022-08-14T09:27:56;9.37;;;8.10;;
4961;SDS011;2496;52.468;13.342;2022-08-14T09:30:24;8.33;;;7.63;;
4961;SDS011;2496;52.468;13.342;2022-08-14T09:32:55;14.83;;;7.70;;
4961;SDS011;2496;52.468;13.342;2022-08-14T09:35:36;9.63;;;6.73;;
4961;SDS011;2496;52.468;13.342;2022-08-14T09:38:15;9.70;;;6.43;;
4961;SDS011;2496;52.468;13.342;2022-08-14T09:40:53;6.93;;;6.20;;
4961;SDS011;2496;52.468;13.342;2022-08-14T09:43:30;7.90;;;6.67;;
4961;SDS011;2496;52.468;13.342;2022-08-14T09:46:06;9.27;;;6.90;;
4961;SDS011;2496;52.468;13.342;2022-08-14T09:48:34;18.10;;;6.63;;
4961;SDS011;2496;52.468;13.342;2022-08-14T09:51:02;8.13;;;6.37;;
4961;SDS011;2496;52.468;13.342;2022-08-14T09:53:36;9.40;;;6.53;;
4961;SDS011;2496;52.468;13.342;2022-08-14T09:56:06;7.87;;;7.17;;
4961;SDS011;2496;52.468;13.342;2022-08-14T09:58:35;6.93;;;6.23;;
4961;SDS011;2496;52.468;13.342;2022-08-14T10:01:09;11.67;;;6.63;;
4961;SDS011;2496;52.468;13.342;2022-08-14T10:03:45;8.00;;;5.53;;
4961;SDS011;2496;52.468;13.342;2022-08-14T10:06:14;7.23;;;6.63;;
4961;SDS011;2496;52.468;13.342;2022-08-14T10:08:44;12.40;;;7.40;;
4961;SDS011;2496;52.468;13.342;2022-08-14T10:11:13;12.97;;;7.20;;
4961;SDS011;2496;52.468;13.342;2022-08-14T10:13:46;7.80;;;6.77;;
4961;SDS011;2496;52.468;13.342;2022-08-14T10:16:19;10.20;;;6.70;;
4961;SDS011;2496;52.468;13.342;2022-08-14T10:19:00;15.93;;;6.10;;
4961;SDS011;2496;52.468;13.342;2022-08-14T10:21:30;10.97;;;6.90;;
4961;SDS011;2496;52.468;13.342;2022-08-14T10:23:58;7.43;;;5.70;;
4961;SDS011;2496;52.468;13.342;2022-08-14T10:26:25;8.60;;;5.53;;
4961;SDS011;2496;52.468;13.342;2022-08-14T10:28:52;6.73;;;5.67;;
4961;SDS011;2496;52.468;13.342;2022-08-14T10:31:22;7.03;;;6.33;;
4961;SDS011;2496;52.468;13.342;2022-08-14T10:34:00;10.40;;;6.13;;
4961;SDS011;2496;52.468;13.342;2022-08-14T10:36:30;7.10;;;5.60;;
4961;SDS011;2496;52.468;13.342;2022-08-14T10:39:00;5.80;;;4.90;;
4961;SDS011;2496;52.468;13.342;2022-08-14T10:41:35;8.37;;;5.30;;
4961;SDS011;2496;52.468;13.342;2022-08-14T10:44:06;7.30;;;5.17;;
4961;SDS011;2496;52.468;13.342;2022-08-14T10:46:44;10.80;;;5.90;;
4961;SDS011;2496;52.468;13.342;2022-08-14T10:49:17;7.53;;;5.10;;
4961;SDS011;2496;52.468;13.342;2022-08-14T10:51:55;5.43;;;4.93;;
4961;SDS011;2496;52.468;13.342;2022-08-14T10:54:28;8.90;;;4.90;;
4961;SDS011;2496;52.468;13.342;2022-08-14T10:56:56;6.47;;;4.90;;
4961;SDS011;2496;52.468;13.342;2022-08-14T10:59:24;8.43;;;5.03;;
4961;SDS011;2496;52.468;13.342;2022-08-14T11:01:52;5.60;;;5.10;;
4961;SDS011;2496;52.468;13.342;2022-08-14T11:04:21;9.37;;;5.30;;
4961;SDS011;2496;52.468;13.342;2022-08-14T11:06:52;10.47;;;5.80;;
4961;SDS011;2496;52.468;13.342;2022-08-14T11:09:20;7.80;;;5.60;;
4961;SDS011;2496;52.468;13.342;2022-08-14T11:11:47;11.93;;;5.40;;
4961;SDS011;2496;52.468;13.342;2022-08-14T11:14:20;6.77;;;5.50;;
4961;SDS011;2496;52.468;13.342;2022-08-14T11:16:47;5.97;;;5.27;;
4961;SDS011;2496;52.468;13.342;2022-08-14T11:19:16;5.10;;;4.70;;
4961;SDS011;2496;52.468;13.342;2022-08-14T11:21:46;16.23;;;5.43;;
4961;SDS011;2496;52.468;13.342;2022-08-14T11:24:16;8.83;;;5.00;;
4961;SDS011;2496;52.468;13.342;2022-08-14T11:26:46;8.63;;;5.60;;
4961;SDS011;2496;52.468;13.342;2022-08-14T11:29:15;12.80;;;6.40;;
4961;SDS011;2496;52.468;13.342;2022-08-14T11:31:46;11.93;;;4.90;;
4961;SDS011;2496;52.468;13.342;2022-08-14T11:34:14;5.77;;;5.17;;
4961;SDS011;2496;52.468;13.342;2022-08-14T11:36:43;5.70;;;5.10;;
4961;SDS011;2496;52.468;13.342;2022-08-14T11:39:16;6.40;;;5.07;;
4961;SDS011;2496;52.468;13.342;2022-08-14T11:41:44;9.20;;;4.77;;
4961;SDS011;2496;52.468;13.342;2022-08-14T11:44:11;6.30;;;5.80;;
4961;SDS011;2496;52.468;13.342;2022-08-14T11:46:40;6.97;;;6.10;;
4961;SDS011;2496;52.468;13.342;2022-08-14T11:49:07;10.83;;;5.50;;
4961;SDS011;2496;52.468;13.342;2022-08-14T11:51:34;8.10;;;5.70;;
4961;SDS011;2496;52.468;13.342;2022-08-14T11:54:03;9.40;;;5.30;;
4961;SDS011;2496;52.468;13.342;2022-08-14T11:56:34;5.87;;;5.20;;
4961;SDS011;2496;52.468;13.342;2022-08-14T11:59:04;6.27;;;5.20;;
4961;SDS011;2496;52.468;13.342;2022-08-14T12:01:33;17.63;;;5.20;;
4961;SDS011;2496;52.468;13.342;2022-08-14T12:04:07;6.53;;;5.83;;
4961;SDS011;2496;52.468;13.342;2022-08-14T12:06:43;5.37;;;4.97;;
4961;SDS011;2496;52.468;13.342;2022-08-14T12:09:15;5.83;;;5.23;;
4961;SDS011;2496;52.468;13.342;2022-08-14T12:11:53;6.30;;;5.00;;
4961;SDS011;2496;52.468;13.342;2022-08-14T12:14:21;7.67;;;5.47;;
4961;SDS011;2496;52.468;13.342;2022-08-14T12:16:56;11.90;;;5.53;;
4961;SDS011;2496;52.468;13.342;2022-08-14T12:19:24;7.40;;;6.13;;
4961;SDS011;2496;52.468;13.342;2022-08-14T12:21:51;10.37;;;5.57;;
4961;SDS011;2496;52.468;13.342;2022-08-14T12:24:25;6.50;;;4.80;;
4961;SDS011;2496;52.468;13.342;2022-08-14T12:26:53;7.17;;;5.60;;
4961;SDS011;2496;52.468;13.342;2022-08-14T12:29:20;11.20;;;6.10;;
4961;SDS011;2496;52.468;13.342;2022-08-14T12:31:56;5.70;;;4.97;;
4961;SDS011;2496;52.468;13.342;2022-08-14T12:34:28;6.50;;;5.90;;
4961;SDS011;2496;52.468;13.342;2022-08-14T12:37:00;8.53;;;5.57;;
4961;SDS011;2496;52.468;13.342;2022-08-14T12:39:31;17.90;;;5.97;;
4961;SDS011;2496;52.468;13.342;2022-08-14T12:41:58;7.03;;;5.87;;
4961;SDS011;2496;52.468;13.342;2022-08-14T12:44:31;6.33;;;5.60;;
4961;SDS011;2496;52.468;13.342;2022-08-14T12:47:02;8.30;;;5.40;;
4961;SDS011;2496;52.468;13.342;2022-08-14T12:49:31;6.97;;;5.97;;
4961;SDS011;2496;52.468;13.342;2022-08-14T12:51:59;7.57;;;5.80;;
4961;SDS011;2496;52.468;13.342;2022-08-14T12:54:27;8.30;;;5.63;;
4961;SDS011;2496;52.468;13.342;2022-08-14T12:57:06;6.50;;;5.90;;
4961;SDS011;2496;52.468;13.342;2022-08-14T12:59:37;6.70;;;6.10;;
4961;SDS011;2496;52.468;13.342;2022-08-14T13:02:05;8.23;;;5.50;;
4961;SDS011;2496;52.468;13.342;2022-08-14T13:04:32;11.33;;;5.70;;
4961;SDS011;2496;52.468;13.342;2022-08-14T13:07:02;5.77;;;5.27;;
4961;SDS011;2496;52.468;13.342;2022-08-14T13:09:31;5.90;;;5.40;;
4961;SDS011;2496;52.468;13.342;2022-08-14T13:11:59;6.03;;;5.40;;
4961;SDS011;2496;52.468;13.342;2022-08-14T13:14:31;11.40;;;6.50;;
4961;SDS011;2496;52.468;13.342;2022-08-14T13:16:59;11.33;;;5.20;;
4961;SDS011;2496;52.468;13.342;2022-08-14T13:19:27;6.13;;;5.60;;
4961;SDS011;2496;52.468;13.342;2022-08-14T13:21:55;9.70;;;6.00;;
4961;SDS011;2496;52.468;13.342;2022-08-14T13:24:22;5.63;;;4.90;;
4961;SDS011;2496;52.468;13.342;2022-08-14T13:26:50;7.17;;;6.13;;
4961;SDS011;2496;52.468;13.342;2022-08-14T13:29:20;6.70;;;5.63;;
4961;SDS011;2496;52.468;13.342;2022-08-14T13:31:50;10.30;;;4.97;;
4961;SDS011;2496;52.468;13.342;2022-08-14T13:34:18;9.17;;;5.67;;
4961;SDS011;2496;52.468;13.342;2022-08-14T13:36:47;13.03;;;6.20;;
4961;SDS011;2496;52.468;13.342;2022-08-14T13:39:14;5.90;;;5.27;;
4961;SDS011;2496;52.468;13.342;2022-08-14T13:41:42;7.93;;;5.40;;
4961;SDS011;2496;52.468;13.342;2022-08-14T13:44:09;5.40;;;4.73;;
4961;SDS011;2496;52.468;13.342;2022-08-14T13:46:36;7.90;;;5.20;;
4961;SDS011;2496;52.468;13.342;2022-08-14T13:49:04;8.93;;;5.63;;
4961;SDS011;2496;52.468;13.342;2022-08-14T13:51:36;9.60;;;5.10;;
4961;SDS011;2496;52.468;13.342;2022-08-14T13:54:05;8.30;;;5.40;;
4961;SDS011;2496;52.468;13.342;2022-08-14T13:56:34;5.30;;;4.90;;
4961;SDS011;2496;52.468;13.342;2022-08-14T13:59:04;4.93;;;4.40;;
4961;SDS011;2496;52.468;13.342;2022-08-14T14:01:32;7.63;;;4.53;;
4961;SDS011;2496;52.468;13.342;2022-08-14T14:04:01;5.03;;;4.53;;
4961;SDS011;2496;52.468;13.342;2022-08-14T14:06:32;6.40;;;4.60;;
4961;SDS011;2496;52.468;13.342;2022-08-14T14:09:00;6.53;;;4.63;;
4961;SDS011;2496;52.468;13.342;2022-08-14T14:11:28;5.50;;;4.97;;
4961;SDS011;2496;52.468;13.342;2022-08-14T14:13:56;5.70;;;5.20;;
4961;SDS011;2496;52.468;13.342;2022-08-14T14:16:24;7.37;;;4.10;;
4961;SDS011;2496;52.468;13.342;2022-08-14T14:18:54;5.80;;;4.97;;
4961;SDS011;2496;52.468;13.342;2022-08-14T14:21:25;6.00;;;4.93;;
4961;SDS011;2496;52.468;13.342;2022-08-14T14:23:53;21.37;;;5.53;;
4961;SDS011;2496;52.468;13.342;2022-08-14T14:26:22;11.77;;;4.77;;
4961;SDS011;2496;52.468;13.342;2022-08-14T14:28:50;11.07;;;4.23;;
4961;SDS011;2496;52.468;13.342;2022-08-14T14:31:20;5.90;;;4.33;;
4961;SDS011;2496;52.468;13.342;2022-08-14T14:33:49;6.20;;;4.90;;
4961;SDS011;2496;52.468;13.342;2022-08-14T14:36:18;6.00;;;4.97;;
4961;SDS011;2496;52.468;13.342;2022-08-14T14:38:50;13.27;;;4.53;;
4961;SDS011;2496;52.468;13.342;2022-08-14T14:41:20;5.30;;;4.63;;
4961;SDS011;2496;52.468;13.342;2022-08-14T14:43:49;9.10;;;4.77;;
4961;SDS011;2496;52.468;13.342;2022-08-14T14:46:17;5.10;;;4.70;;
4961;SDS011;2496;52.468;13.342;2022-08-14T14:48:45;6.30;;;4.63;;
4961;SDS011;2496;52.468;13.342;2022-08-14T14:51:12;5.03;;;4.53;;
4961;SDS011;2496;52.468;13.342;2022-08-14T14:53:41;4.10;;;3.67;;
4961;SDS011;2496;52.468;13.342;2022-08-14T14:56:09;7.00;;;4.40;;
4961;SDS011;2496;52.468;13.342;2022-08-14T14:58:39;6.50;;;4.53;;
4961;SDS011;2496;52.468;13.342;2022-08-14T15:01:08;8.83;;;4.17;;
4961;SDS011;2496;52.468;13.342;2022-08-14T15:03:36;11.27;;;4.43;;